ADDS METAR Data

Data at: 0742 UTC 24 Oct 2017

METAR for:KGNR (Greenville Muni, ME, US)
Text:KGNR 240656Z AUTO 15007KT 12/12 A3012 RMK AO1 SLP203 T01170117
Temperature: 11.7°C ( 53°F)
Dewpoint: 11.7°C ( 53°F) [RH = 100%]
Pressure (altimeter):30.12 inches Hg (1020.1 mb) [Sea level pressure: 1020.3 mb]
Winds:from the SSE (150 degrees) at 8 MPH (7 knots; 3.6 m/s)
QC Flag:automated observation with no human augmentation